createdAt,value
2018-11-07T00:02:22.409Z,10.33
2018-11-07T00:04:51.418Z,12.00
2018-11-07T00:07:20.454Z,10.80
2018-11-07T00:09:48.775Z,11.17
2018-11-07T00:12:16.990Z,10.50
2018-11-07T00:14:45.250Z,10.63
2018-11-07T00:17:13.495Z,9.93
2018-11-07T00:19:42.114Z,10.60
2018-11-07T00:22:10.378Z,10.10
2018-11-07T00:24:38.618Z,10.20
2018-11-07T00:27:06.914Z,10.57
2018-11-07T00:29:35.130Z,10.53
2018-11-07T00:32:03.453Z,11.03
2018-11-07T00:34:32.207Z,11.50
2018-11-07T00:37:00.453Z,9.83
2018-11-07T00:39:28.702Z,10.50
2018-11-07T00:41:57.727Z,10.10
2018-11-07T00:44:25.965Z,9.93
2018-11-07T00:46:54.992Z,10.07
2018-11-07T00:49:23.243Z,10.43
2018-11-07T00:51:52.266Z,9.87
2018-11-07T00:54:21.287Z,8.30
2018-11-07T00:56:49.566Z,9.43
2018-11-07T00:59:17.802Z,10.60
2018-11-07T01:01:46.046Z,9.57
2018-11-07T01:04:15.074Z,8.97
2018-11-07T01:06:43.352Z,8.50
2018-11-07T01:09:11.594Z,7.57
2018-11-07T01:11:40.655Z,8.17
2018-11-07T01:14:09.128Z,7.20
2018-11-07T01:16:37.467Z,7.63
2018-11-07T01:19:06.027Z,5.33
2018-11-07T01:21:35.041Z,6.20
2018-11-07T01:24:03.306Z,6.00
2018-11-07T01:26:31.713Z,5.97
2018-11-07T01:28:59.948Z,6.37
2018-11-07T01:31:28.958Z,6.83
2018-11-07T01:33:57.188Z,6.77
2018-11-07T01:36:25.453Z,6.47
2018-11-07T01:38:53.687Z,7.20
2018-11-07T01:41:21.934Z,7.43
2018-11-07T01:43:50.952Z,7.20
2018-11-07T01:46:19.227Z,7.53
2018-11-07T01:48:47.491Z,8.00
2018-11-07T01:51:15.745Z,9.53
2018-11-07T01:53:44.762Z,7.10
2018-11-07T01:56:13.005Z,7.43
2018-11-07T01:58:41.253Z,8.10
2018-11-07T02:01:09.535Z,7.83
2018-11-07T02:03:37.766Z,8.97
2018-11-07T02:06:06.030Z,8.70
2018-11-07T02:08:34.282Z,8.03
2018-11-07T02:11:02.511Z,7.27
2018-11-07T02:13:30.750Z,7.40
2018-11-07T02:15:59.011Z,6.93
2018-11-07T02:18:28.013Z,7.23
2018-11-07T02:20:57.041Z,7.87
2018-11-07T02:23:25.270Z,8.27
2018-11-07T02:25:54.395Z,8.87
2018-11-07T02:28:23.357Z,7.67
2018-11-07T02:30:52.406Z,7.37
2018-11-07T02:33:20.667Z,7.73
2018-11-07T02:35:48.922Z,6.60
2018-11-07T02:38:17.179Z,6.97
2018-11-07T02:40:46.243Z,7.70
2018-11-07T02:43:14.511Z,7.73
2018-11-07T02:45:42.733Z,8.90
2018-11-07T02:48:10.983Z,7.93
2018-11-07T02:50:39.219Z,8.50
2018-11-07T02:53:07.470Z,7.93
2018-11-07T02:55:35.729Z,8.60
2018-11-07T02:58:03.958Z,8.13
2018-11-07T03:00:32.247Z,9.00
2018-11-07T03:03:00.525Z,8.90
2018-11-07T03:05:29.701Z,9.20
2018-11-07T03:07:57.934Z,9.03
2018-11-07T03:10:26.214Z,9.70
2018-11-07T03:12:54.454Z,9.70
2018-11-07T03:15:23.499Z,9.00
2018-11-07T03:17:51.747Z,9.13
2018-11-07T03:20:20.006Z,9.60
2018-11-07T03:22:49.016Z,9.30
2018-11-07T03:25:17.277Z,9.50
2018-11-07T03:27:46.311Z,10.03
2018-11-07T03:30:14.552Z,9.47
2018-11-07T03:32:42.791Z,9.00
2018-11-07T03:35:11.026Z,9.33
2018-11-07T03:37:39.281Z,9.00
2018-11-07T03:40:07.536Z,9.50
2018-11-07T03:42:36.563Z,9.13
2018-11-07T03:45:04.828Z,8.53
2018-11-07T03:47:33.082Z,9.07
2018-11-07T03:50:02.094Z,7.90
2018-11-07T03:52:30.395Z,8.27
2018-11-07T03:54:58.622Z,8.27
2018-11-07T03:57:27.689Z,8.27
2018-11-07T03:59:55.964Z,8.10
2018-11-07T04:02:24.198Z,7.57
2018-11-07T04:04:52.430Z,8.00
2018-11-07T04:07:20.683Z,7.93
2018-11-07T04:09:48.933Z,8.57
2018-11-07T04:12:17.167Z,6.50
2018-11-07T04:14:46.193Z,6.00
2018-11-07T04:17:14.439Z,6.03
2018-11-07T04:19:43.448Z,5.40
2018-11-07T04:22:11.694Z,5.07
2018-11-07T04:24:40.695Z,6.23
2018-11-07T04:27:09.717Z,6.60
2018-11-07T04:29:37.946Z,5.47
2018-11-07T04:32:06.206Z,4.90
2018-11-07T04:34:34.555Z,5.13
2018-11-07T04:37:02.785Z,5.33
2018-11-07T04:39:31.812Z,5.53
2018-11-07T04:42:00.056Z,5.73
2018-11-07T04:44:29.050Z,5.90
2018-11-07T04:46:58.076Z,7.40
2018-11-07T04:49:26.314Z,6.87
2018-11-07T04:51:55.334Z,6.83
2018-11-07T04:54:23.588Z,7.10
2018-11-07T04:56:52.609Z,7.83
2018-11-07T04:59:20.867Z,7.80
2018-11-07T05:01:49.123Z,7.10
2018-11-07T05:04:18.155Z,7.47
2018-11-07T05:06:46.390Z,7.23
2018-11-07T05:09:15.395Z,7.27
2018-11-07T05:11:43.645Z,7.50
2018-11-07T05:14:12.682Z,7.27
2018-11-07T05:16:40.937Z,7.13
2018-11-07T05:19:09.170Z,7.03
2018-11-07T05:21:37.430Z,6.97
2018-11-07T05:24:05.689Z,7.10
2018-11-07T05:26:33.949Z,6.43
2018-11-07T05:29:02.205Z,6.80
2018-11-07T05:31:31.219Z,6.33
2018-11-07T05:33:59.458Z,6.97
2018-11-07T05:36:28.454Z,7.00
2018-11-07T05:38:57.487Z,6.17
2018-11-07T05:41:25.733Z,6.10
2018-11-07T05:43:53.975Z,5.63
2018-11-07T05:46:22.226Z,5.53
2018-11-07T05:48:50.483Z,5.50
2018-11-07T05:51:18.722Z,5.40
2018-11-07T05:53:47.723Z,5.70
2018-11-07T05:56:15.990Z,5.10
2018-11-07T05:58:44.993Z,4.87
2018-11-07T06:01:14.010Z,4.93
2018-11-07T06:03:42.238Z,6.33
2018-11-07T06:06:11.263Z,4.83
2018-11-07T06:08:39.530Z,4.43
2018-11-07T06:11:07.775Z,4.17
2018-11-07T06:13:36.004Z,5.30
2018-11-07T06:16:04.323Z,5.70
2018-11-07T06:18:32.524Z,6.70
2018-11-07T06:21:01.526Z,6.03
2018-11-07T06:23:29.786Z,6.10
2018-11-07T06:25:58.795Z,6.80
2018-11-07T06:28:27.062Z,6.90
2018-11-07T06:30:56.060Z,6.83
2018-11-07T06:33:24.290Z,6.93
2018-11-07T06:35:52.551Z,6.93
2018-11-07T06:38:20.807Z,7.47
2018-11-07T06:40:49.059Z,7.13
2018-11-07T06:43:17.297Z,6.93
2018-11-07T06:45:45.546Z,7.40
2018-11-07T06:48:14.543Z,7.50
2018-11-07T06:50:42.827Z,7.90
2018-11-07T06:53:11.067Z,8.27
2018-11-07T06:55:39.360Z,7.13
2018-11-07T06:58:08.348Z,7.07
2018-11-07T07:00:36.594Z,6.93
2018-11-07T07:03:04.838Z,6.77
2018-11-07T07:05:33.835Z,6.67
2018-11-07T07:08:02.866Z,6.20
2018-11-07T07:10:31.116Z,6.20
2018-11-07T07:13:00.142Z,6.80
2018-11-07T07:15:28.486Z,6.40
2018-11-07T07:17:57.128Z,6.57
2018-11-07T07:20:25.315Z,7.60
2018-11-07T07:22:53.582Z,7.50
2018-11-07T07:25:21.854Z,8.27
2018-11-07T07:27:50.086Z,8.60
2018-11-07T07:30:18.362Z,8.10
2018-11-07T07:32:47.366Z,8.33
2018-11-07T07:35:15.610Z,8.80
2018-11-07T07:37:43.845Z,8.73
2018-11-07T07:40:12.117Z,9.80
2018-11-07T07:42:40.368Z,9.60
2018-11-07T07:45:08.614Z,9.77
2018-11-07T07:47:36.870Z,12.87
2018-11-07T07:50:05.901Z,12.60
2018-11-07T07:52:34.215Z,12.53
2018-11-07T07:55:02.459Z,12.40
2018-11-07T07:57:30.734Z,11.43
2018-11-07T07:59:59.056Z,12.07
2018-11-07T08:02:27.274Z,11.63
2018-11-07T08:04:55.524Z,10.70
2018-11-07T08:07:24.548Z,10.87
2018-11-07T08:09:52.799Z,13.00
2018-11-07T08:12:21.074Z,12.67
2018-11-07T08:14:49.325Z,11.30
2018-11-07T08:17:18.358Z,10.83
2018-11-07T08:19:46.619Z,10.73
2018-11-07T08:22:14.894Z,10.60
2018-11-07T08:24:43.767Z,11.03
2018-11-07T08:27:12.811Z,10.73
2018-11-07T08:29:41.084Z,11.63
2018-11-07T08:32:09.330Z,11.57
2018-11-07T08:34:37.642Z,12.20
2018-11-07T08:37:05.911Z,10.97
2018-11-07T08:39:34.164Z,10.70
2018-11-07T08:42:02.415Z,10.43
2018-11-07T08:44:31.539Z,10.53
2018-11-07T08:46:59.815Z,12.43
2018-11-07T08:49:28.093Z,14.47
2018-11-07T08:51:56.820Z,12.57
2018-11-07T08:54:25.059Z,13.30
2018-11-07T08:56:53.334Z,10.77
2018-11-07T08:59:21.579Z,10.50
2018-11-07T09:01:49.933Z,10.07
2018-11-07T09:04:18.167Z,9.97
2018-11-07T09:06:46.415Z,10.87
2018-11-07T09:09:14.697Z,10.03
2018-11-07T09:11:42.945Z,13.20
2018-11-07T09:14:11.193Z,10.53
2018-11-07T09:16:40.239Z,10.57
2018-11-07T09:19:08.487Z,10.03
2018-11-07T09:21:37.539Z,10.30
2018-11-07T09:24:05.782Z,9.93
2018-11-07T09:26:34.050Z,10.23
2018-11-07T09:29:02.347Z,9.70
2018-11-07T09:31:30.574Z,10.53
2018-11-07T09:33:59.578Z,10.43
2018-11-07T09:36:27.883Z,9.90
2018-11-07T09:38:56.136Z,10.27
2018-11-07T09:41:24.379Z,9.80
2018-11-07T09:43:53.450Z,10.67
2018-11-07T09:46:21.695Z,9.73
2018-11-07T09:48:49.967Z,9.37
2018-11-07T09:51:18.207Z,9.33
2018-11-07T09:53:47.255Z,9.50
2018-11-07T09:56:15.515Z,9.00
2018-11-07T09:58:43.757Z,8.83
2018-11-07T10:01:12.793Z,9.13
2018-11-07T10:03:41.108Z,8.80
2018-11-07T10:06:09.342Z,9.47
2018-11-07T10:08:37.634Z,8.80
2018-11-07T10:11:05.864Z,7.97
2018-11-07T10:13:34.864Z,8.50
2018-11-07T10:16:03.125Z,8.60
2018-11-07T10:18:31.372Z,7.80
2018-11-07T10:20:59.650Z,8.93
2018-11-07T10:23:28.659Z,8.47
2018-11-07T10:25:57.697Z,8.27
2018-11-07T10:28:26.165Z,8.20
2018-11-07T10:30:54.223Z,7.93
2018-11-07T10:33:22.490Z,7.73
2018-11-07T10:35:50.737Z,8.03
2018-11-07T10:38:19.776Z,8.07
2018-11-07T10:40:48.107Z,8.13
2018-11-07T10:43:16.330Z,8.23
2018-11-07T10:45:44.598Z,7.83
2018-11-07T10:48:12.850Z,8.13
2018-11-07T10:50:41.105Z,7.27
2018-11-07T10:53:09.375Z,7.87
2018-11-07T10:55:37.646Z,8.30
2018-11-07T10:58:05.894Z,8.83
2018-11-07T11:00:34.125Z,8.40
2018-11-07T11:03:02.397Z,8.60
2018-11-07T11:05:30.650Z,7.90
2018-11-07T11:07:59.561Z,10.17
2018-11-07T11:10:27.813Z,9.77
2018-11-07T11:12:56.858Z,9.10
2018-11-07T11:15:25.117Z,9.33
2018-11-07T11:17:53.380Z,8.73
2018-11-07T11:20:21.652Z,8.83
2018-11-07T11:22:50.699Z,9.00
2018-11-07T11:25:18.969Z,10.10
2018-11-07T11:27:47.222Z,10.03
2018-11-07T11:30:15.555Z,9.80
2018-11-07T11:32:43.786Z,9.20
2018-11-07T11:35:12.207Z,10.33
2018-11-07T11:37:40.310Z,9.80
2018-11-07T11:40:08.563Z,9.90
2018-11-07T11:42:37.683Z,9.47
2018-11-07T11:45:05.959Z,8.77
2018-11-07T11:47:34.202Z,9.57
2018-11-07T11:50:03.239Z,9.70
2018-11-07T11:52:31.517Z,9.17
2018-11-07T11:54:59.765Z,9.20
2018-11-07T11:57:28.014Z,8.50
2018-11-07T11:59:57.456Z,8.23
2018-11-07T12:02:25.406Z,7.50
2018-11-07T12:04:53.591Z,9.10
2018-11-07T12:07:21.882Z,8.57
2018-11-07T12:09:50.131Z,7.83
2018-11-07T12:12:18.402Z,9.13
2018-11-07T12:14:47.442Z,8.30
2018-11-07T12:17:15.723Z,9.03
2018-11-07T12:19:43.974Z,8.17
2018-11-07T12:22:12.226Z,7.40
2018-11-07T12:24:41.322Z,6.67
2018-11-07T12:27:09.562Z,6.90
2018-11-07T12:29:37.836Z,7.37
2018-11-07T12:32:06.075Z,8.67
2018-11-07T12:34:34.341Z,7.13
2018-11-07T12:37:02.582Z,7.47
2018-11-07T12:39:31.668Z,8.07
2018-11-07T12:42:00.677Z,6.40
2018-11-07T12:44:29.706Z,7.23
2018-11-07T12:46:57.955Z,6.27
2018-11-07T12:49:26.247Z,5.93
2018-11-07T12:51:54.521Z,6.20
2018-11-07T12:54:23.634Z,6.33
2018-11-07T12:56:51.905Z,6.73
2018-11-07T12:59:20.153Z,5.80
2018-11-07T13:01:48.406Z,5.90
2018-11-07T13:04:17.468Z,5.60
2018-11-07T13:06:45.899Z,4.50
2018-11-07T13:09:14.168Z,7.33
2018-11-07T13:11:42.423Z,4.77
2018-11-07T13:14:11.469Z,4.10
2018-11-07T13:16:39.811Z,3.63
2018-11-07T13:19:08.056Z,3.53
2018-11-07T13:21:36.317Z,3.33
2018-11-07T13:24:04.586Z,3.30
2018-11-07T13:26:32.867Z,3.40
2018-11-07T13:29:01.114Z,4.60
2018-11-07T13:31:29.382Z,4.60
2018-11-07T13:33:57.629Z,5.43
2018-11-07T13:36:26.678Z,4.80
2018-11-07T13:38:55.275Z,2.97
2018-11-07T13:41:23.198Z,2.60
2018-11-07T13:43:51.536Z,2.30
2018-11-07T13:46:20.548Z,2.60
2018-11-07T13:48:48.812Z,2.47
2018-11-07T13:51:17.875Z,2.47
2018-11-07T13:53:46.202Z,2.10
2018-11-07T13:56:14.454Z,2.10
2018-11-07T13:58:43.487Z,2.23
2018-11-07T14:01:11.736Z,2.03
2018-11-07T14:03:40.762Z,2.67
2018-11-07T14:06:09.010Z,2.70
2018-11-07T14:08:37.270Z,2.77
2018-11-07T14:11:06.303Z,3.20
2018-11-07T14:13:34.582Z,2.67
2018-11-07T14:16:02.908Z,2.90
2018-11-07T14:18:31.127Z,3.03
2018-11-07T14:20:59.385Z,3.07
2018-11-07T14:23:27.655Z,2.80
2018-11-07T14:25:55.924Z,2.67
2018-11-07T14:28:24.388Z,2.57
2018-11-07T14:30:53.199Z,2.97
2018-11-07T14:33:21.470Z,2.87
2018-11-07T14:35:49.729Z,2.80
2018-11-07T14:38:18.028Z,2.73
2018-11-07T14:40:46.256Z,2.90
2018-11-07T14:43:14.513Z,3.00
2018-11-07T14:45:42.752Z,2.73
2018-11-07T14:48:11.028Z,2.90
2018-11-07T14:50:39.291Z,2.80
2018-11-07T14:53:08.342Z,2.90
2018-11-07T14:55:36.599Z,3.40
2018-11-07T14:58:04.843Z,2.47
2018-11-07T15:00:33.107Z,2.67
2018-11-07T15:03:01.371Z,2.80
2018-11-07T15:05:30.479Z,2.80
2018-11-07T15:07:58.690Z,2.70
2018-11-07T15:10:26.951Z,2.80
2018-11-07T15:12:55.218Z,2.70
2018-11-07T15:15:23.507Z,2.47
2018-11-07T15:17:51.757Z,2.90
2018-11-07T15:20:20.051Z,2.80
2018-11-07T15:22:48.314Z,2.70
2018-11-07T15:25:16.577Z,2.37
2018-11-07T15:27:44.842Z,2.73
2018-11-07T15:30:13.102Z,2.53
2018-11-07T15:32:41.379Z,2.43
2018-11-07T15:35:09.620Z,2.87
2018-11-07T15:37:37.873Z,2.80
2018-11-07T15:40:06.127Z,2.73
2018-11-07T15:42:34.404Z,2.70
2018-11-07T15:45:02.669Z,2.80
2018-11-07T15:47:30.926Z,2.50
2018-11-07T15:50:00.019Z,2.87
2018-11-07T15:52:29.061Z,2.63
2018-11-07T15:54:58.075Z,2.70
2018-11-07T15:57:26.319Z,2.77
2018-11-07T15:59:54.637Z,2.90
2018-11-07T16:02:22.867Z,2.70
2018-11-07T16:04:51.134Z,3.20
2018-11-07T16:07:20.168Z,2.60
2018-11-07T16:09:48.518Z,2.73
2018-11-07T16:12:16.769Z,2.73
2018-11-07T16:14:45.051Z,3.10
2018-11-07T16:17:13.281Z,2.53
2018-11-07T16:19:41.559Z,2.63
2018-11-07T16:22:09.826Z,2.57
2018-11-07T16:24:38.087Z,3.00
2018-11-07T16:27:06.323Z,2.73
2018-11-07T16:29:34.562Z,2.97
2018-11-07T16:32:02.864Z,2.73
2018-11-07T16:34:31.901Z,2.87
2018-11-07T16:37:00.202Z,3.10
2018-11-07T16:39:28.450Z,3.17
2018-11-07T16:41:56.799Z,3.20
2018-11-07T16:44:24.949Z,2.77
2018-11-07T16:46:54.002Z,2.77
2018-11-07T16:49:22.230Z,3.03
2018-11-07T16:51:50.550Z,3.20
2018-11-07T16:54:18.786Z,3.00
2018-11-07T16:56:47.021Z,3.07
2018-11-07T16:59:15.320Z,3.00
2018-11-07T17:01:43.534Z,3.00
2018-11-07T17:04:11.805Z,3.20
2018-11-07T17:06:40.071Z,3.10
2018-11-07T17:09:08.339Z,3.33
2018-11-07T17:11:36.600Z,3.23
2018-11-07T17:14:05.655Z,3.40
2018-11-07T17:16:33.910Z,3.40
2018-11-07T17:19:02.214Z,3.30
2018-11-07T17:21:30.475Z,2.97
2018-11-07T17:26:39.628Z,3.20
2018-11-07T17:29:07.887Z,3.23
2018-11-07T17:31:36.225Z,3.03
2018-11-07T17:34:04.387Z,2.97
2018-11-07T17:36:33.421Z,3.37
2018-11-07T17:39:01.671Z,3.27
2018-11-07T17:41:29.956Z,3.53
2018-11-07T17:43:58.218Z,3.80
2018-11-07T17:46:26.512Z,3.60
2018-11-07T17:48:54.760Z,3.40
2018-11-07T17:51:23.784Z,3.40
2018-11-07T17:53:52.053Z,3.80
2018-11-07T17:56:20.306Z,3.83
2018-11-07T17:58:49.333Z,3.83
2018-11-07T18:01:17.566Z,3.43
2018-11-07T18:03:45.881Z,3.33
2018-11-07T18:06:14.126Z,3.70
2018-11-07T18:08:42.370Z,3.63
2018-11-07T18:11:10.611Z,4.00
2018-11-07T18:13:38.924Z,3.73
2018-11-07T18:16:07.178Z,3.30
2018-11-07T18:18:35.435Z,4.73
2018-11-07T18:21:03.695Z,5.20
2018-11-07T18:23:31.969Z,6.17
2018-11-07T18:26:00.237Z,6.80
2018-11-07T18:28:28.470Z,6.20
2018-11-07T18:30:57.514Z,5.53
2018-11-07T18:33:25.762Z,4.87
2018-11-07T18:35:54.116Z,4.77
2018-11-07T18:38:22.287Z,4.03
2018-11-07T18:40:50.567Z,4.33
2018-11-07T18:43:19.575Z,4.30
2018-11-07T18:45:48.621Z,4.50
2018-11-07T18:48:16.863Z,4.57
2018-11-07T18:50:45.425Z,4.77
2018-11-07T18:53:13.560Z,4.70
2018-11-07T18:55:41.842Z,4.60
2018-11-07T18:58:10.106Z,4.97
2018-11-07T19:00:38.394Z,5.27
2018-11-07T19:03:06.642Z,4.50
2018-11-07T19:05:34.895Z,4.67
2018-11-07T19:08:03.551Z,5.17
2018-11-07T19:10:31.784Z,4.60
2018-11-07T19:13:00.032Z,5.13
2018-11-07T19:15:28.275Z,5.00
2018-11-07T19:17:57.329Z,4.80
2018-11-07T19:20:25.634Z,4.30
2018-11-07T19:22:54.623Z,5.00
2018-11-07T19:25:23.646Z,4.60
2018-11-07T19:27:51.913Z,5.40
2018-11-07T19:30:20.178Z,5.40
2018-11-07T19:32:49.258Z,6.70
2018-11-07T19:35:17.467Z,7.40
2018-11-07T19:37:45.764Z,7.33
2018-11-07T19:40:14.109Z,5.77
2018-11-07T19:42:42.313Z,6.17
2018-11-07T19:45:10.577Z,6.23
2018-11-07T19:47:38.822Z,5.77
2018-11-07T19:50:07.880Z,6.00
2018-11-07T19:52:36.138Z,6.00
2018-11-07T19:55:04.469Z,5.53
2018-11-07T19:57:32.790Z,5.73
2018-11-07T20:00:01.993Z,5.67
2018-11-07T20:02:30.239Z,6.70
2018-11-07T20:04:58.580Z,5.40
2018-11-07T20:07:27.593Z,5.80
2018-11-07T20:09:57.454Z,6.07
2018-11-07T20:12:26.022Z,5.87
2018-11-07T20:14:54.274Z,5.90
2018-11-07T20:17:22.517Z,6.50
2018-11-07T20:19:51.556Z,4.90
2018-11-07T20:22:19.778Z,6.07
2018-11-07T20:24:49.111Z,5.87
2018-11-07T20:27:18.124Z,6.03
2018-11-07T20:29:46.371Z,5.80
2018-11-07T20:32:14.628Z,6.67
2018-11-07T20:34:43.647Z,7.00
2018-11-07T20:37:11.910Z,6.80
2018-11-07T20:39:40.172Z,7.23
2018-11-07T20:42:09.176Z,6.20
2018-11-07T20:44:38.215Z,6.30
2018-11-07T20:47:06.476Z,5.37
2018-11-07T20:49:34.733Z,5.10
2018-11-07T20:52:03.023Z,5.50
2018-11-07T20:54:31.267Z,5.73
2018-11-07T20:57:00.305Z,6.60
2018-11-07T20:59:28.546Z,6.33
2018-11-07T21:01:56.883Z,6.73
2018-11-07T21:04:25.832Z,6.70
2018-11-07T21:06:54.094Z,6.73
2018-11-07T21:09:22.331Z,6.57
2018-11-07T21:11:50.597Z,7.10
2018-11-07T21:14:18.851Z,6.90
2018-11-07T21:16:47.558Z,7.07
2018-11-07T21:19:16.495Z,7.40
2018-11-07T21:21:44.757Z,7.57
2018-11-07T21:24:13.772Z,6.87
2018-11-07T21:26:42.024Z,6.47
2018-11-07T21:29:10.511Z,6.63
2018-11-07T21:31:38.762Z,6.30
2018-11-07T21:34:08.543Z,6.27
2018-11-07T21:36:36.811Z,7.00
2018-11-07T21:39:05.065Z,7.43
2018-11-07T21:41:33.346Z,6.63
2018-11-07T21:44:01.681Z,9.50
2018-11-07T21:46:29.859Z,9.03
2018-11-07T21:48:58.898Z,8.03
2018-11-07T21:51:27.174Z,8.43
2018-11-07T21:53:55.418Z,8.50
2018-11-07T21:56:23.685Z,8.07
2018-11-07T21:58:51.971Z,7.50
2018-11-07T22:01:20.966Z,7.37
2018-11-07T22:03:49.228Z,7.33
2018-11-07T22:06:17.483Z,7.60
2018-11-07T22:08:46.482Z,7.27
2018-11-07T22:11:15.519Z,7.73
2018-11-07T22:13:43.766Z,7.43
2018-11-07T22:16:12.030Z,7.37
2018-11-07T22:18:40.290Z,7.60
2018-11-07T22:21:09.315Z,7.30
2018-11-07T22:23:37.681Z,7.27
2018-11-07T22:26:05.923Z,5.93
2018-11-07T22:28:34.226Z,6.10
2018-11-07T22:31:03.221Z,6.57
2018-11-07T22:33:31.487Z,6.13
2018-11-07T22:36:00.518Z,6.10
2018-11-07T22:38:28.750Z,5.70
2018-11-07T22:40:57.763Z,5.50
2018-11-07T22:43:26.003Z,6.33
2018-11-07T22:45:54.956Z,5.37
2018-11-07T22:48:23.218Z,6.30
2018-11-07T22:50:51.466Z,6.10
2018-11-07T22:53:19.717Z,5.47
2018-11-07T22:55:47.975Z,5.93
2018-11-07T22:58:16.227Z,5.60
2018-11-07T23:00:44.479Z,6.47
2018-11-07T23:03:12.999Z,6.10
2018-11-07T23:05:41.254Z,5.87
2018-11-07T23:08:09.506Z,6.47
2018-11-07T23:10:37.817Z,5.43
2018-11-07T23:13:06.027Z,6.37
2018-11-07T23:15:35.051Z,5.73
2018-11-07T23:18:03.333Z,6.07
2018-11-07T23:20:31.559Z,5.63
2018-11-07T23:22:59.809Z,5.37
2018-11-07T23:25:28.266Z,5.30
2018-11-07T23:27:56.519Z,5.87
2018-11-07T23:30:24.770Z,4.87
2018-11-07T23:32:53.282Z,5.87
2018-11-07T23:35:21.518Z,5.60
2018-11-07T23:37:49.765Z,6.13
2018-11-07T23:40:18.019Z,6.20
2018-11-07T23:42:46.264Z,6.23
2018-11-07T23:45:15.296Z,6.10
2018-11-07T23:47:43.538Z,6.40
2018-11-07T23:50:12.546Z,5.67
2018-11-07T23:52:41.140Z,5.57
2018-11-07T23:55:09.380Z,5.23
2018-11-07T23:57:38.389Z,5.60
